sensor_id;sensor_type;location;lat;lon;timestamp;P1;durP1;ratioP1;P2;durP2;ratioP2
70920;SDS011;58572;48.110;19.838;2024-02-26T00:00:03;9.57;;;5.85;;
70920;SDS011;58572;48.110;19.838;2024-02-26T00:02:46;10.88;;;6.05;;
70920;SDS011;58572;48.110;19.838;2024-02-26T00:05:18;8.65;;;5.72;;
70920;SDS011;58572;48.110;19.838;2024-02-26T00:07:53;8.10;;;5.63;;
70920;SDS011;58572;48.110;19.838;2024-02-26T00:10:30;7.45;;;4.82;;
70920;SDS011;58572;48.110;19.838;2024-02-26T00:13:05;8.55;;;5.45;;
70920;SDS011;58572;48.110;19.838;2024-02-26T00:15:44;8.00;;;5.75;;
70920;SDS011;58572;48.110;19.838;2024-02-26T00:20:55;7.45;;;5.05;;
70920;SDS011;58572;48.110;19.838;2024-02-26T00:23:30;7.88;;;4.93;;
70920;SDS011;58572;48.110;19.838;2024-02-26T00:26:06;8.75;;;4.80;;
70920;SDS011;58572;48.110;19.838;2024-02-26T00:28:44;7.05;;;4.60;;
70920;SDS011;58572;48.110;19.838;2024-02-26T00:31:20;7.07;;;5.05;;
70920;SDS011;58572;48.110;19.838;2024-02-26T00:36:47;7.70;;;3.95;;
70920;SDS011;58572;48.110;19.838;2024-02-26T00:39:21;6.43;;;3.90;;
70920;SDS011;58572;48.110;19.838;2024-02-26T00:41:56;5.97;;;4.22;;
70920;SDS011;58572;48.110;19.838;2024-02-26T00:44:33;6.07;;;3.95;;
70920;SDS011;58572;48.110;19.838;2024-02-26T00:47:09;6.80;;;4.40;;
70920;SDS011;58572;48.110;19.838;2024-02-26T00:49:48;6.72;;;4.13;;
70920;SDS011;58572;48.110;19.838;2024-02-26T00:52:23;7.00;;;4.80;;
70920;SDS011;58572;48.110;19.838;2024-02-26T00:57:35;6.15;;;3.67;;
70920;SDS011;58572;48.110;19.838;2024-02-26T01:00:12;5.45;;;3.97;;
70920;SDS011;58572;48.110;19.838;2024-02-26T01:02:50;6.00;;;3.92;;
70920;SDS011;58572;48.110;19.838;2024-02-26T01:05:29;6.90;;;4.18;;
70920;SDS011;58572;48.110;19.838;2024-02-26T01:08:00;6.55;;;3.78;;
70920;SDS011;58572;48.110;19.838;2024-02-26T01:10:33;7.00;;;3.83;;
70920;SDS011;58572;48.110;19.838;2024-02-26T01:13:05;6.07;;;3.92;;
70920;SDS011;58572;48.110;19.838;2024-02-26T01:15:37;7.40;;;4.22;;
70920;SDS011;58572;48.110;19.838;2024-02-26T01:18:11;4.78;;;3.28;;
70920;SDS011;58572;48.110;19.838;2024-02-26T01:23:16;5.53;;;3.47;;
70920;SDS011;58572;48.110;19.838;2024-02-26T01:25:43;6.75;;;3.95;;
70920;SDS011;58572;48.110;19.838;2024-02-26T01:28:10;5.90;;;3.92;;
70920;SDS011;58572;48.110;19.838;2024-02-26T01:30:37;5.25;;;3.75;;
70920;SDS011;58572;48.110;19.838;2024-02-26T01:33:04;6.55;;;2.97;;
70920;SDS011;58572;48.110;19.838;2024-02-26T01:35:31;5.35;;;3.10;;
70920;SDS011;58572;48.110;19.838;2024-02-26T01:38:00;6.10;;;4.00;;
70920;SDS011;58572;48.110;19.838;2024-02-26T01:40:27;5.13;;;3.58;;
70920;SDS011;58572;48.110;19.838;2024-02-26T01:45:22;4.55;;;3.17;;
70920;SDS011;58572;48.110;19.838;2024-02-26T01:47:50;6.82;;;3.33;;
70920;SDS011;58572;48.110;19.838;2024-02-26T01:52:44;4.53;;;2.75;;
70920;SDS011;58572;48.110;19.838;2024-02-26T01:55:15;4.38;;;3.00;;
70920;SDS011;58572;48.110;19.838;2024-02-26T01:57:42;4.97;;;3.50;;
70920;SDS011;58572;48.110;19.838;2024-02-26T02:00:12;4.88;;;3.75;;
70920;SDS011;58572;48.110;19.838;2024-02-26T02:02:41;4.38;;;2.53;;
70920;SDS011;58572;48.110;19.838;2024-02-26T02:05:12;6.45;;;3.20;;
70920;SDS011;58572;48.110;19.838;2024-02-26T02:07:41;5.57;;;3.33;;
70920;SDS011;58572;48.110;19.838;2024-02-26T02:10:08;5.82;;;3.85;;
70920;SDS011;58572;48.110;19.838;2024-02-26T02:12:37;8.10;;;4.00;;
70920;SDS011;58572;48.110;19.838;2024-02-26T02:15:05;7.38;;;3.72;;
70920;SDS011;58572;48.110;19.838;2024-02-26T02:17:33;5.70;;;3.65;;
70920;SDS011;58572;48.110;19.838;2024-02-26T02:20:01;4.53;;;3.25;;
70920;SDS011;58572;48.110;19.838;2024-02-26T02:22:30;6.05;;;3.97;;
70920;SDS011;58572;48.110;19.838;2024-02-26T02:24:58;5.80;;;3.35;;
70920;SDS011;58572;48.110;19.838;2024-02-26T02:27:26;6.32;;;4.00;;
70920;SDS011;58572;48.110;19.838;2024-02-26T02:29:55;6.25;;;4.20;;
70920;SDS011;58572;48.110;19.838;2024-02-26T02:32:22;9.10;;;5.05;;
70920;SDS011;58572;48.110;19.838;2024-02-26T02:34:51;7.40;;;4.68;;
70920;SDS011;58572;48.110;19.838;2024-02-26T02:37:18;6.97;;;4.47;;
70920;SDS011;58572;48.110;19.838;2024-02-26T02:39:46;7.70;;;5.20;;
70920;SDS011;58572;48.110;19.838;2024-02-26T02:42:14;8.15;;;5.22;;
70920;SDS011;58572;48.110;19.838;2024-02-26T02:44:41;7.47;;;4.65;;
70920;SDS011;58572;48.110;19.838;2024-02-26T02:47:09;6.22;;;4.40;;
70920;SDS011;58572;48.110;19.838;2024-02-26T02:49:36;6.65;;;4.05;;
70920;SDS011;58572;48.110;19.838;2024-02-26T02:52:04;10.27;;;5.47;;
70920;SDS011;58572;48.110;19.838;2024-02-26T02:54:31;7.10;;;4.53;;
70920;SDS011;58572;48.110;19.838;2024-02-26T02:57:00;7.25;;;5.15;;
70920;SDS011;58572;48.110;19.838;2024-02-26T02:59:27;7.32;;;5.00;;
70920;SDS011;58572;48.110;19.838;2024-02-26T03:01:54;9.43;;;5.35;;
70920;SDS011;58572;48.110;19.838;2024-02-26T03:04:21;8.27;;;5.57;;
70920;SDS011;58572;48.110;19.838;2024-02-26T03:06:48;9.85;;;5.03;;
70920;SDS011;58572;48.110;19.838;2024-02-26T03:09:15;8.88;;;4.97;;
70920;SDS011;58572;48.110;19.838;2024-02-26T03:11:42;9.75;;;5.70;;
70920;SDS011;58572;48.110;19.838;2024-02-26T03:14:10;9.80;;;6.22;;
70920;SDS011;58572;48.110;19.838;2024-02-26T03:16:38;9.93;;;6.60;;
70920;SDS011;58572;48.110;19.838;2024-02-26T03:19:05;9.93;;;5.85;;
70920;SDS011;58572;48.110;19.838;2024-02-26T03:21:32;9.27;;;5.78;;
70920;SDS011;58572;48.110;19.838;2024-02-26T03:23:59;9.02;;;6.38;;
70920;SDS011;58572;48.110;19.838;2024-02-26T03:26:26;8.50;;;5.22;;
70920;SDS011;58572;48.110;19.838;2024-02-26T03:28:53;9.38;;;6.05;;
70920;SDS011;58572;48.110;19.838;2024-02-26T03:31:21;9.10;;;5.25;;
70920;SDS011;58572;48.110;19.838;2024-02-26T03:33:48;8.10;;;5.15;;
70920;SDS011;58572;48.110;19.838;2024-02-26T03:36:15;25.65;;;6.13;;
70920;SDS011;58572;48.110;19.838;2024-02-26T03:38:42;8.52;;;5.63;;
70920;SDS011;58572;48.110;19.838;2024-02-26T03:41:10;9.10;;;4.80;;
70920;SDS011;58572;48.110;19.838;2024-02-26T03:43:37;9.38;;;5.32;;
70920;SDS011;58572;48.110;19.838;2024-02-26T03:46:06;8.90;;;5.78;;
70920;SDS011;58572;48.110;19.838;2024-02-26T03:48:35;10.63;;;5.60;;
70920;SDS011;58572;48.110;19.838;2024-02-26T03:51:02;9.88;;;6.35;;
70920;SDS011;58572;48.110;19.838;2024-02-26T03:55:56;9.20;;;5.18;;
70920;SDS011;58572;48.110;19.838;2024-02-26T03:58:23;10.82;;;6.13;;
70920;SDS011;58572;48.110;19.838;2024-02-26T04:00:50;9.73;;;5.95;;
70920;SDS011;58572;48.110;19.838;2024-02-26T04:03:17;9.60;;;6.22;;
70920;SDS011;58572;48.110;19.838;2024-02-26T04:05:46;10.52;;;6.32;;
70920;SDS011;58572;48.110;19.838;2024-02-26T04:08:13;9.05;;;5.68;;
70920;SDS011;58572;48.110;19.838;2024-02-26T04:10:40;9.32;;;5.72;;
70920;SDS011;58572;48.110;19.838;2024-02-26T04:13:07;13.85;;;6.82;;
70920;SDS011;58572;48.110;19.838;2024-02-26T04:15:35;14.98;;;5.53;;
70920;SDS011;58572;48.110;19.838;2024-02-26T04:18:02;11.70;;;5.22;;
70920;SDS011;58572;48.110;19.838;2024-02-26T04:20:29;8.43;;;5.93;;
70920;SDS011;58572;48.110;19.838;2024-02-26T04:22:58;9.88;;;5.78;;
70920;SDS011;58572;48.110;19.838;2024-02-26T04:25:25;10.98;;;6.22;;
70920;SDS011;58572;48.110;19.838;2024-02-26T04:27:52;9.45;;;5.80;;
70920;SDS011;58572;48.110;19.838;2024-02-26T04:30:19;10.10;;;6.35;;
70920;SDS011;58572;48.110;19.838;2024-02-26T04:32:46;12.35;;;6.97;;
70920;SDS011;58572;48.110;19.838;2024-02-26T04:35:13;9.55;;;5.38;;
70920;SDS011;58572;48.110;19.838;2024-02-26T04:37:41;8.20;;;4.88;;
70920;SDS011;58572;48.110;19.838;2024-02-26T04:40:09;11.60;;;5.97;;
70920;SDS011;58572;48.110;19.838;2024-02-26T04:42:37;11.77;;;6.25;;
70920;SDS011;58572;48.110;19.838;2024-02-26T04:45:04;10.77;;;5.20;;
70920;SDS011;58572;48.110;19.838;2024-02-26T04:47:32;10.25;;;5.55;;
70920;SDS011;58572;48.110;19.838;2024-02-26T04:49:59;9.23;;;5.72;;
70920;SDS011;58572;48.110;19.838;2024-02-26T04:52:27;8.57;;;5.05;;
70920;SDS011;58572;48.110;19.838;2024-02-26T04:54:54;9.18;;;5.38;;
70920;SDS011;58572;48.110;19.838;2024-02-26T04:57:22;6.97;;;4.63;;
70920;SDS011;58572;48.110;19.838;2024-02-26T04:59:49;8.18;;;5.63;;
70920;SDS011;58572;48.110;19.838;2024-02-26T05:02:16;7.50;;;5.22;;
70920;SDS011;58572;48.110;19.838;2024-02-26T05:04:43;8.35;;;4.88;;
70920;SDS011;58572;48.110;19.838;2024-02-26T05:07:10;7.40;;;4.10;;
70920;SDS011;58572;48.110;19.838;2024-02-26T05:09:38;6.82;;;4.00;;
70920;SDS011;58572;48.110;19.838;2024-02-26T05:12:05;5.50;;;3.65;;
70920;SDS011;58572;48.110;19.838;2024-02-26T05:14:34;7.18;;;4.30;;
70920;SDS011;58572;48.110;19.838;2024-02-26T05:17:01;7.45;;;4.93;;
70920;SDS011;58572;48.110;19.838;2024-02-26T05:19:28;7.95;;;3.85;;
70920;SDS011;58572;48.110;19.838;2024-02-26T05:21:55;6.32;;;3.03;;
70920;SDS011;58572;48.110;19.838;2024-02-26T05:24:22;5.75;;;3.22;;
70920;SDS011;58572;48.110;19.838;2024-02-26T05:26:49;5.40;;;3.30;;
70920;SDS011;58572;48.110;19.838;2024-02-26T05:29:16;6.18;;;3.42;;
70920;SDS011;58572;48.110;19.838;2024-02-26T05:31:45;4.72;;;2.72;;
70920;SDS011;58572;48.110;19.838;2024-02-26T05:34:12;4.97;;;3.05;;
70920;SDS011;58572;48.110;19.838;2024-02-26T05:36:39;5.90;;;3.28;;
70920;SDS011;58572;48.110;19.838;2024-02-26T05:39:06;4.88;;;2.92;;
70920;SDS011;58572;48.110;19.838;2024-02-26T05:41:33;5.10;;;3.05;;
70920;SDS011;58572;48.110;19.838;2024-02-26T05:44:00;5.07;;;2.67;;
70920;SDS011;58572;48.110;19.838;2024-02-26T05:46:29;4.53;;;3.40;;
70920;SDS011;58572;48.110;19.838;2024-02-26T05:48:57;5.03;;;2.75;;
70920;SDS011;58572;48.110;19.838;2024-02-26T05:51:24;4.88;;;3.17;;
70920;SDS011;58572;48.110;19.838;2024-02-26T05:53:51;5.85;;;3.00;;
70920;SDS011;58572;48.110;19.838;2024-02-26T05:56:20;4.68;;;2.45;;
70920;SDS011;58572;48.110;19.838;2024-02-26T05:58:47;5.68;;;2.78;;
70920;SDS011;58572;48.110;19.838;2024-02-26T06:01:15;5.40;;;3.10;;
70920;SDS011;58572;48.110;19.838;2024-02-26T06:03:43;6.55;;;2.90;;
70920;SDS011;58572;48.110;19.838;2024-02-26T06:06:11;4.65;;;3.22;;
70920;SDS011;58572;48.110;19.838;2024-02-26T06:08:40;8.95;;;2.70;;
70920;SDS011;58572;48.110;19.838;2024-02-26T06:11:07;4.63;;;2.58;;
70920;SDS011;58572;48.110;19.838;2024-02-26T06:13:34;5.03;;;3.40;;
70920;SDS011;58572;48.110;19.838;2024-02-26T06:16:02;5.78;;;3.38;;
70920;SDS011;58572;48.110;19.838;2024-02-26T06:20:56;4.75;;;2.83;;
70920;SDS011;58572;48.110;19.838;2024-02-26T06:23:25;5.13;;;3.28;;
70920;SDS011;58572;48.110;19.838;2024-02-26T06:25:52;6.25;;;3.47;;
70920;SDS011;58572;48.110;19.838;2024-02-26T06:28:19;6.85;;;3.47;;
70920;SDS011;58572;48.110;19.838;2024-02-26T06:30:46;7.45;;;3.28;;
70920;SDS011;58572;48.110;19.838;2024-02-26T06:33:13;7.90;;;5.57;;
70920;SDS011;58572;48.110;19.838;2024-02-26T06:35:40;6.70;;;4.60;;
70920;SDS011;58572;48.110;19.838;2024-02-26T06:38:08;11.40;;;5.88;;
70920;SDS011;58572;48.110;19.838;2024-02-26T06:40:38;10.52;;;5.32;;
70920;SDS011;58572;48.110;19.838;2024-02-26T06:43:05;10.68;;;6.75;;
70920;SDS011;58572;48.110;19.838;2024-02-26T06:45:32;11.48;;;6.32;;
70920;SDS011;58572;48.110;19.838;2024-02-26T06:47:59;12.15;;;6.45;;
70920;SDS011;58572;48.110;19.838;2024-02-26T06:50:26;12.50;;;6.68;;
70920;SDS011;58572;48.110;19.838;2024-02-26T06:52:53;13.07;;;8.52;;
70920;SDS011;58572;48.110;19.838;2024-02-26T06:55:20;12.00;;;8.13;;
70920;SDS011;58572;48.110;19.838;2024-02-26T06:57:49;13.20;;;7.93;;
70920;SDS011;58572;48.110;19.838;2024-02-26T07:00:16;16.45;;;10.30;;
70920;SDS011;58572;48.110;19.838;2024-02-26T07:02:44;15.60;;;10.20;;
70920;SDS011;58572;48.110;19.838;2024-02-26T07:05:11;13.23;;;9.32;;
70920;SDS011;58572;48.110;19.838;2024-02-26T07:07:38;18.08;;;11.50;;
70920;SDS011;58572;48.110;19.838;2024-02-26T07:10:05;17.33;;;11.77;;
70920;SDS011;58572;48.110;19.838;2024-02-26T07:12:33;18.52;;;12.10;;
70920;SDS011;58572;48.110;19.838;2024-02-26T07:15:01;17.95;;;11.90;;
70920;SDS011;58572;48.110;19.838;2024-02-26T07:17:28;16.70;;;11.80;;
70920;SDS011;58572;48.110;19.838;2024-02-26T07:19:55;19.38;;;12.38;;
70920;SDS011;58572;48.110;19.838;2024-02-26T07:22:23;18.23;;;12.73;;
70920;SDS011;58572;48.110;19.838;2024-02-26T07:24:50;23.70;;;12.70;;
70920;SDS011;58572;48.110;19.838;2024-02-26T07:27:18;21.27;;;12.93;;
70920;SDS011;58572;48.110;19.838;2024-02-26T07:29:46;19.30;;;13.25;;
70920;SDS011;58572;48.110;19.838;2024-02-26T07:32:14;22.90;;;14.20;;
70920;SDS011;58572;48.110;19.838;2024-02-26T07:34:42;20.55;;;14.00;;
70920;SDS011;58572;48.110;19.838;2024-02-26T07:37:09;22.70;;;14.35;;
70920;SDS011;58572;48.110;19.838;2024-02-26T07:39:37;22.30;;;14.90;;
70920;SDS011;58572;48.110;19.838;2024-02-26T07:42:04;21.48;;;15.05;;
70920;SDS011;58572;48.110;19.838;2024-02-26T07:44:31;25.50;;;15.25;;
70920;SDS011;58572;48.110;19.838;2024-02-26T07:46:59;26.20;;;15.52;;
70920;SDS011;58572;48.110;19.838;2024-02-26T07:49:27;23.10;;;16.00;;
70920;SDS011;58572;48.110;19.838;2024-02-26T07:51:54;23.13;;;15.43;;
70920;SDS011;58572;48.110;19.838;2024-02-26T07:54:23;25.60;;;16.35;;
70920;SDS011;58572;48.110;19.838;2024-02-26T07:56:50;23.65;;;15.70;;
70920;SDS011;58572;48.110;19.838;2024-02-26T07:59:17;24.02;;;16.00;;
70920;SDS011;58572;48.110;19.838;2024-02-26T08:01:48;24.90;;;15.65;;
70920;SDS011;58572;48.110;19.838;2024-02-26T08:04:16;25.33;;;16.33;;
70920;SDS011;58572;48.110;19.838;2024-02-26T08:06:45;30.92;;;19.63;;
70920;SDS011;58572;48.110;19.838;2024-02-26T08:09:12;29.45;;;18.08;;
70920;SDS011;58572;48.110;19.838;2024-02-26T08:11:39;27.85;;;16.52;;
70920;SDS011;58572;48.110;19.838;2024-02-26T08:14:06;32.53;;;18.52;;
70920;SDS011;58572;48.110;19.838;2024-02-26T08:16:33;28.95;;;19.27;;
70920;SDS011;58572;48.110;19.838;2024-02-26T08:19:00;29.25;;;19.10;;
70920;SDS011;58572;48.110;19.838;2024-02-26T08:21:27;29.25;;;18.38;;
70920;SDS011;58572;48.110;19.838;2024-02-26T08:23:55;27.15;;;17.83;;
70920;SDS011;58572;48.110;19.838;2024-02-26T08:26:22;28.30;;;17.80;;
70920;SDS011;58572;48.110;19.838;2024-02-26T08:28:49;30.13;;;19.30;;
70920;SDS011;58572;48.110;19.838;2024-02-26T08:33:44;27.20;;;16.38;;
70920;SDS011;58572;48.110;19.838;2024-02-26T08:36:11;32.22;;;18.85;;
70920;SDS011;58572;48.110;19.838;2024-02-26T08:38:38;31.75;;;20.85;;
70920;SDS011;58572;48.110;19.838;2024-02-26T08:41:06;34.70;;;21.73;;
70920;SDS011;58572;48.110;19.838;2024-02-26T08:43:33;33.13;;;20.13;;
70920;SDS011;58572;48.110;19.838;2024-02-26T08:46:00;34.70;;;21.38;;
70920;SDS011;58572;48.110;19.838;2024-02-26T08:48:28;43.72;;;26.40;;
70920;SDS011;58572;48.110;19.838;2024-02-26T08:50:55;35.03;;;22.00;;
70920;SDS011;58572;48.110;19.838;2024-02-26T08:53:22;58.58;;;31.77;;
70920;SDS011;58572;48.110;19.838;2024-02-26T08:55:52;65.95;;;35.42;;
70920;SDS011;58572;48.110;19.838;2024-02-26T08:58:20;47.67;;;28.58;;
70920;SDS011;58572;48.110;19.838;2024-02-26T09:00:47;44.90;;;25.55;;
70920;SDS011;58572;48.110;19.838;2024-02-26T09:03:14;36.40;;;22.50;;
70920;SDS011;58572;48.110;19.838;2024-02-26T09:05:41;40.88;;;25.42;;
70920;SDS011;58572;48.110;19.838;2024-02-26T09:08:09;38.70;;;22.88;;
70920;SDS011;58572;48.110;19.838;2024-02-26T09:10:36;37.00;;;23.73;;
70920;SDS011;58572;48.110;19.838;2024-02-26T09:13:03;38.00;;;23.70;;
70920;SDS011;58572;48.110;19.838;2024-02-26T09:15:32;34.65;;;22.52;;
70920;SDS011;58572;48.110;19.838;2024-02-26T09:17:59;40.47;;;25.65;;
70920;SDS011;58572;48.110;19.838;2024-02-26T09:20:26;40.05;;;26.17;;
70920;SDS011;58572;48.110;19.838;2024-02-26T09:22:53;41.10;;;26.48;;
70920;SDS011;58572;48.110;19.838;2024-02-26T09:25:20;36.55;;;23.02;;
70920;SDS011;58572;48.110;19.838;2024-02-26T09:27:47;39.75;;;24.73;;
70920;SDS011;58572;48.110;19.838;2024-02-26T09:30:15;39.53;;;24.60;;
70920;SDS011;58572;48.110;19.838;2024-02-26T09:32:46;41.03;;;24.48;;
70920;SDS011;58572;48.110;19.838;2024-02-26T09:35:14;46.63;;;25.10;;
70920;SDS011;58572;48.110;19.838;2024-02-26T09:37:41;45.40;;;25.05;;
70920;SDS011;58572;48.110;19.838;2024-02-26T09:40:09;68.95;;;33.72;;
70920;SDS011;58572;48.110;19.838;2024-02-26T09:42:37;39.50;;;24.35;;
70920;SDS011;58572;48.110;19.838;2024-02-26T09:45:10;42.78;;;25.95;;
70920;SDS011;58572;48.110;19.838;2024-02-26T09:47:39;43.08;;;26.58;;
70920;SDS011;58572;48.110;19.838;2024-02-26T09:50:09;40.78;;;25.55;;
70920;SDS011;58572;48.110;19.838;2024-02-26T09:52:37;40.38;;;27.40;;
70920;SDS011;58572;48.110;19.838;2024-02-26T09:55:06;38.70;;;25.27;;
70920;SDS011;58572;48.110;19.838;2024-02-26T09:57:34;38.28;;;25.00;;
70920;SDS011;58572;48.110;19.838;2024-02-26T10:00:03;39.15;;;26.52;;
70920;SDS011;58572;48.110;19.838;2024-02-26T10:02:33;38.88;;;25.63;;
70920;SDS011;58572;48.110;19.838;2024-02-26T10:05:03;38.33;;;24.67;;
70920;SDS011;58572;48.110;19.838;2024-02-26T10:07:33;40.80;;;24.80;;
70920;SDS011;58572;48.110;19.838;2024-02-26T10:10:02;41.25;;;23.20;;
70920;SDS011;58572;48.110;19.838;2024-02-26T10:12:30;37.55;;;24.25;;
70920;SDS011;58572;48.110;19.838;2024-02-26T10:14:58;34.33;;;23.13;;
70920;SDS011;58572;48.110;19.838;2024-02-26T10:17:25;37.53;;;23.30;;
70920;SDS011;58572;48.110;19.838;2024-02-26T10:19:53;36.58;;;23.27;;
70920;SDS011;58572;48.110;19.838;2024-02-26T10:22:21;36.38;;;23.75;;
70920;SDS011;58572;48.110;19.838;2024-02-26T10:24:50;32.80;;;22.52;;
70920;SDS011;58572;48.110;19.838;2024-02-26T10:27:17;35.28;;;23.30;;
70920;SDS011;58572;48.110;19.838;2024-02-26T10:29:45;35.35;;;24.00;;
70920;SDS011;58572;48.110;19.838;2024-02-26T10:32:12;33.75;;;22.42;;
70920;SDS011;58572;48.110;19.838;2024-02-26T10:34:40;40.08;;;23.48;;
70920;SDS011;58572;48.110;19.838;2024-02-26T10:37:07;34.75;;;22.40;;
70920;SDS011;58572;48.110;19.838;2024-02-26T10:39:36;32.72;;;22.08;;
70920;SDS011;58572;48.110;19.838;2024-02-26T10:42:05;40.72;;;24.55;;
70920;SDS011;58572;48.110;19.838;2024-02-26T10:44:40;31.90;;;21.50;;
70920;SDS011;58572;48.110;19.838;2024-02-26T10:47:10;28.75;;;20.67;;
70920;SDS011;58572;48.110;19.838;2024-02-26T10:49:37;31.40;;;21.17;;
70920;SDS011;58572;48.110;19.838;2024-02-26T10:52:05;28.40;;;18.42;;
70920;SDS011;58572;48.110;19.838;2024-02-26T10:54:33;38.15;;;24.50;;
70920;SDS011;58572;48.110;19.838;2024-02-26T10:57:02;30.00;;;18.65;;
70920;SDS011;58572;48.110;19.838;2024-02-26T10:59:32;28.42;;;20.48;;
70920;SDS011;58572;48.110;19.838;2024-02-26T11:02:01;27.20;;;18.67;;
70920;SDS011;58572;48.110;19.838;2024-02-26T11:04:29;26.33;;;16.52;;
70920;SDS011;58572;48.110;19.838;2024-02-26T11:06:57;28.92;;;19.45;;
70920;SDS011;58572;48.110;19.838;2024-02-26T11:09:24;37.75;;;23.13;;
70920;SDS011;58572;48.110;19.838;2024-02-26T11:11:52;27.80;;;20.13;;
70920;SDS011;58572;48.110;19.838;2024-02-26T11:14:22;27.23;;;18.45;;
70920;SDS011;58572;48.110;19.838;2024-02-26T11:16:51;31.92;;;21.27;;
70920;SDS011;58572;48.110;19.838;2024-02-26T11:19:20;24.00;;;18.17;;
70920;SDS011;58572;48.110;19.838;2024-02-26T11:21:48;26.40;;;18.27;;
70920;SDS011;58572;48.110;19.838;2024-02-26T11:24:15;23.48;;;17.13;;
70920;SDS011;58572;48.110;19.838;2024-02-26T11:26:45;27.17;;;18.17;;
70920;SDS011;58572;48.110;19.838;2024-02-26T11:29:16;27.30;;;17.85;;
70920;SDS011;58572;48.110;19.838;2024-02-26T11:31:50;28.25;;;18.98;;
70920;SDS011;58572;48.110;19.838;2024-02-26T11:34:18;23.92;;;17.10;;
70920;SDS011;58572;48.110;19.838;2024-02-26T11:36:45;25.70;;;17.48;;
70920;SDS011;58572;48.110;19.838;2024-02-26T11:39:13;27.55;;;16.80;;
70920;SDS011;58572;48.110;19.838;2024-02-26T11:41:42;26.88;;;17.67;;
70920;SDS011;58572;48.110;19.838;2024-02-26T11:44:09;24.73;;;16.60;;
70920;SDS011;58572;48.110;19.838;2024-02-26T11:46:39;85.45;;;51.72;;
70920;SDS011;58572;48.110;19.838;2024-02-26T11:52:04;24.90;;;16.42;;
70920;SDS011;58572;48.110;19.838;2024-02-26T11:54:39;26.33;;;17.13;;
70920;SDS011;58572;48.110;19.838;2024-02-26T11:57:25;25.90;;;17.80;;
70920;SDS011;58572;48.110;19.838;2024-02-26T11:59:54;26.70;;;16.98;;
70920;SDS011;58572;48.110;19.838;2024-02-26T12:05:12;22.52;;;15.63;;
70920;SDS011;58572;48.110;19.838;2024-02-26T12:07:44;22.00;;;15.95;;
70920;SDS011;58572;48.110;19.838;2024-02-26T12:10:22;21.33;;;15.23;;
70920;SDS011;58572;48.110;19.838;2024-02-26T12:12:55;21.83;;;15.27;;
70920;SDS011;58572;48.110;19.838;2024-02-26T12:15:30;25.38;;;15.85;;
70920;SDS011;58572;48.110;19.838;2024-02-26T12:18:00;28.42;;;18.63;;
70920;SDS011;58572;48.110;19.838;2024-02-26T12:20:30;23.75;;;15.82;;
70920;SDS011;58572;48.110;19.838;2024-02-26T12:22:57;22.45;;;15.35;;
70920;SDS011;58572;48.110;19.838;2024-02-26T12:25:25;25.55;;;17.42;;
70920;SDS011;58572;48.110;19.838;2024-02-26T12:27:54;22.50;;;16.70;;
70920;SDS011;58572;48.110;19.838;2024-02-26T12:30:22;21.42;;;15.27;;
70920;SDS011;58572;48.110;19.838;2024-02-26T12:32:49;23.60;;;14.52;;
70920;SDS011;58572;48.110;19.838;2024-02-26T12:35:17;25.38;;;15.45;;
70920;SDS011;58572;48.110;19.838;2024-02-26T12:37:46;24.02;;;15.38;;
70920;SDS011;58572;48.110;19.838;2024-02-26T12:40:13;22.83;;;15.93;;
70920;SDS011;58572;48.110;19.838;2024-02-26T12:42:42;22.05;;;14.77;;
70920;SDS011;58572;48.110;19.838;2024-02-26T12:45:10;23.58;;;16.10;;
70920;SDS011;58572;48.110;19.838;2024-02-26T12:47:38;22.10;;;15.00;;
70920;SDS011;58572;48.110;19.838;2024-02-26T12:50:05;25.10;;;16.02;;
70920;SDS011;58572;48.110;19.838;2024-02-26T12:52:33;23.55;;;15.13;;
70920;SDS011;58572;48.110;19.838;2024-02-26T12:55:03;22.30;;;14.90;;
70920;SDS011;58572;48.110;19.838;2024-02-26T12:57:31;22.65;;;14.23;;
70920;SDS011;58572;48.110;19.838;2024-02-26T12:59:59;20.73;;;15.20;;
70920;SDS011;58572;48.110;19.838;2024-02-26T13:02:28;21.65;;;14.95;;
70920;SDS011;58572;48.110;19.838;2024-02-26T13:04:56;20.63;;;13.38;;
70920;SDS011;58572;48.110;19.838;2024-02-26T13:07:26;23.20;;;15.10;;
70920;SDS011;58572;48.110;19.838;2024-02-26T13:12:22;21.80;;;14.55;;
70920;SDS011;58572;48.110;19.838;2024-02-26T13:14:58;22.15;;;15.02;;
70920;SDS011;58572;48.110;19.838;2024-02-26T13:17:25;19.77;;;12.90;;
70920;SDS011;58572;48.110;19.838;2024-02-26T13:19:53;20.70;;;14.30;;
70920;SDS011;58572;48.110;19.838;2024-02-26T13:22:20;22.15;;;14.10;;
70920;SDS011;58572;48.110;19.838;2024-02-26T13:24:55;23.08;;;17.27;;
70920;SDS011;58572;48.110;19.838;2024-02-26T13:27:24;20.40;;;15.07;;
70920;SDS011;58572;48.110;19.838;2024-02-26T13:30:01;26.58;;;16.80;;
70920;SDS011;58572;48.110;19.838;2024-02-26T13:32:31;20.38;;;14.18;;
70920;SDS011;58572;48.110;19.838;2024-02-26T13:35:06;23.98;;;15.50;;
70920;SDS011;58572;48.110;19.838;2024-02-26T13:37:34;25.00;;;14.50;;
70920;SDS011;58572;48.110;19.838;2024-02-26T13:40:04;21.67;;;14.48;;
70920;SDS011;58572;48.110;19.838;2024-02-26T13:42:33;22.23;;;14.10;;
70920;SDS011;58572;48.110;19.838;2024-02-26T13:45:00;22.85;;;14.43;;
70920;SDS011;58572;48.110;19.838;2024-02-26T13:47:28;22.52;;;14.70;;
70920;SDS011;58572;48.110;19.838;2024-02-26T13:49:55;22.35;;;15.60;;
70920;SDS011;58572;48.110;19.838;2024-02-26T13:52:22;19.85;;;15.20;;
70920;SDS011;58572;48.110;19.838;2024-02-26T13:54:49;22.50;;;16.40;;
70920;SDS011;58572;48.110;19.838;2024-02-26T13:57:16;21.63;;;14.70;;
70920;SDS011;58572;48.110;19.838;2024-02-26T13:59:45;22.75;;;16.08;;
70920;SDS011;58572;48.110;19.838;2024-02-26T14:02:13;25.60;;;15.18;;
70920;SDS011;58572;48.110;19.838;2024-02-26T14:04:40;21.33;;;15.27;;
70920;SDS011;58572;48.110;19.838;2024-02-26T14:07:07;23.08;;;15.43;;
70920;SDS011;58572;48.110;19.838;2024-02-26T14:09:35;22.67;;;17.23;;
70920;SDS011;58572;48.110;19.838;2024-02-26T14:12:02;21.00;;;15.20;;
70920;SDS011;58572;48.110;19.838;2024-02-26T14:17:02;23.67;;;15.82;;
70920;SDS011;58572;48.110;19.838;2024-02-26T14:19:29;31.23;;;16.35;;
70920;SDS011;58572;48.110;19.838;2024-02-26T14:21:56;25.05;;;17.23;;
70920;SDS011;58572;48.110;19.838;2024-02-26T14:24:23;24.52;;;17.63;;
70920;SDS011;58572;48.110;19.838;2024-02-26T14:26:50;27.27;;;16.13;;
70920;SDS011;58572;48.110;19.838;2024-02-26T14:29:17;26.55;;;17.02;;
70920;SDS011;58572;48.110;19.838;2024-02-26T14:31:44;25.25;;;17.15;;
70920;SDS011;58572;48.110;19.838;2024-02-26T14:34:13;22.42;;;17.13;;
70920;SDS011;58572;48.110;19.838;2024-02-26T14:36:42;25.02;;;17.35;;
70920;SDS011;58572;48.110;19.838;2024-02-26T14:39:09;29.48;;;19.85;;
70920;SDS011;58572;48.110;19.838;2024-02-26T14:41:37;24.13;;;17.90;;
70920;SDS011;58572;48.110;19.838;2024-02-26T14:44:05;24.55;;;17.25;;
70920;SDS011;58572;48.110;19.838;2024-02-26T14:46:32;25.20;;;17.90;;
70920;SDS011;58572;48.110;19.838;2024-02-26T14:48:59;26.67;;;18.23;;
70920;SDS011;58572;48.110;19.838;2024-02-26T14:51:27;26.92;;;18.08;;
70920;SDS011;58572;48.110;19.838;2024-02-26T14:53:54;31.02;;;19.95;;
70920;SDS011;58572;48.110;19.838;2024-02-26T14:56:22;24.60;;;17.08;;
70920;SDS011;58572;48.110;19.838;2024-02-26T14:58:49;25.27;;;17.70;;